createdAt,value
2023-04-09T00:00:31.148Z,4.70
2023-04-09T00:04:29.095Z,5.92
2023-04-09T00:08:36.857Z,6.07
2023-04-09T00:12:44.842Z,5.58
2023-04-09T00:16:46.763Z,5.12
2023-04-09T00:20:54.929Z,4.69
2023-04-09T00:25:04.142Z,4.54
2023-04-09T00:29:12.985Z,5.80
2023-04-09T00:33:07.629Z,5.69
2023-04-09T00:37:02.515Z,5.21
2023-04-09T00:41:00.671Z,4.72
2023-04-09T00:44:51.404Z,4.31
2023-04-09T00:48:52.091Z,4.19
2023-04-09T00:52:50.308Z,5.48
2023-04-09T00:56:58.542Z,5.35
2023-04-09T01:01:06.830Z,4.75
2023-04-09T01:05:14.982Z,4.23
2023-04-09T01:09:28.948Z,3.79
2023-04-09T01:13:40.132Z,3.72
2023-04-09T01:17:48.322Z,5.01
2023-04-09T01:21:52.150Z,4.92
2023-04-09T01:26:24.720Z,4.43
2023-04-09T01:30:25.744Z,3.86
2023-04-09T01:34:33.827Z,3.46
2023-04-09T01:38:33.327Z,3.44
2023-04-09T01:42:41.023Z,4.81
2023-04-09T01:46:49.152Z,4.77
2023-04-09T01:50:57.324Z,4.24
2023-04-09T01:55:05.497Z,3.81
2023-04-09T01:59:06.404Z,3.67
2023-04-09T02:03:19.465Z,4.93
2023-04-09T02:07:40.031Z,4.91
2023-04-09T02:11:46.642Z,4.41
2023-04-09T02:15:54.786Z,3.97
2023-04-09T02:20:02.978Z,3.84
2023-04-09T02:24:04.301Z,5.06
2023-04-09T02:28:12.541Z,4.92
2023-04-09T02:32:20.694Z,4.35
2023-04-09T02:36:28.768Z,3.82
2023-04-09T02:40:29.683Z,3.42
2023-04-09T02:44:39.843Z,3.35
2023-04-09T02:48:48.947Z,4.76
2023-04-09T02:52:47.014Z,4.79
2023-04-09T02:56:55.231Z,4.37
2023-04-09T03:01:03.359Z,3.98
2023-04-09T03:05:11.472Z,3.86
2023-04-09T03:09:20.619Z,5.13
2023-04-09T03:13:18.862Z,5.11
2023-04-09T03:17:27.184Z,4.70
2023-04-09T03:21:11.630Z,4.29
2023-04-09T03:25:04.552Z,3.99
2023-04-09T03:28:51.956Z,3.91
2023-04-09T03:33:00.348Z,5.16
2023-04-09T03:37:08.495Z,5.12
2023-04-09T03:41:16.305Z,4.55
2023-04-09T03:45:14.231Z,4.03
2023-04-09T03:49:23.435Z,3.57
2023-04-09T03:53:32.662Z,3.48
2023-04-09T03:57:40.796Z,4.82
2023-04-09T04:01:48.929Z,4.73
2023-04-09T04:05:57.132Z,4.19
2023-04-09T04:10:05.237Z,3.75
2023-04-09T04:14:14.420Z,3.62
2023-04-09T04:18:23.623Z,4.84
2023-04-09T04:22:14.416Z,4.70
2023-04-09T04:26:22.566Z,4.20
2023-04-09T04:30:00.571Z,3.78
2023-04-09T04:33:41.511Z,3.58
2023-04-09T04:37:12.903Z,4.68
2023-04-09T04:41:21.042Z,4.92
2023-04-09T04:45:28.999Z,4.32
2023-04-09T04:49:05.858Z,3.84
2023-04-09T04:52:17.754Z,3.54
2023-04-09T04:55:56.695Z,3.28
2023-04-09T04:59:29.180Z,4.24
2023-04-09T05:02:58.921Z,4.67
2023-04-09T05:07:07.436Z,4.33
2023-04-09T05:10:49.155Z,3.96
2023-04-09T05:14:16.056Z,3.71
2023-04-09T05:18:11.543Z,3.63
2023-04-09T05:21:27.619Z,4.87
2023-04-09T05:25:27.053Z,4.94
2023-04-09T05:29:28.155Z,4.50
2023-04-09T05:33:20.152Z,4.16
2023-04-09T05:37:21.870Z,3.85
2023-04-09T05:41:04.397Z,3.87
2023-04-09T05:44:55.519Z,5.35
2023-04-09T05:48:43.699Z,5.64
2023-04-09T05:52:36.132Z,5.45
2023-04-09T05:56:12.658Z,5.21
2023-04-09T06:00:20.751Z,4.95
2023-04-09T06:03:21.654Z,4.81
2023-04-09T06:07:29.911Z,6.07
2023-04-09T06:10:10.386Z,6.58
2023-04-09T06:13:18.863Z,6.47
2023-04-09T06:17:17.759Z,6.19
2023-04-09T06:20:11.232Z,5.99
2023-04-09T06:23:38.254Z,5.92
2023-04-09T06:26:38.799Z,6.19
2023-04-09T06:29:15.228Z,7.79
2023-04-09T06:32:53.805Z,9.05
2023-04-09T06:36:44.340Z,10.08
2023-04-09T06:39:34.699Z,10.73
2023-04-09T06:43:14.938Z,11.01
2023-04-09T06:46:42.022Z,11.44
2023-04-09T06:49:41.238Z,11.62
2023-04-09T06:52:27.511Z,11.57
2023-04-09T06:56:10.078Z,11.83
2023-04-09T06:59:06.463Z,12.31
2023-04-09T07:01:56.609Z,12.64
2023-04-09T07:04:51.306Z,12.83
2023-04-09T07:07:44.323Z,13.05
2023-04-09T07:10:37.867Z,13.35
2023-04-09T07:13:57.809Z,13.62
2023-04-09T07:17:15.485Z,13.98
2023-04-09T07:20:37.693Z,14.26
2023-04-09T07:23:46.414Z,14.52
2023-04-09T07:26:45.621Z,14.98
2023-04-09T07:30:23.867Z,15.53
2023-04-09T07:33:05.585Z,16.16
2023-04-09T07:36:21.101Z,16.64
2023-04-09T07:39:15.845Z,16.88
2023-04-09T07:41:47.410Z,16.83
2023-04-09T07:44:47.343Z,16.81
2023-04-09T07:47:23.279Z,16.89
2023-04-09T07:51:06.315Z,17.07
2023-04-09T07:54:38.175Z,17.70
2023-04-09T07:57:39.678Z,18.01
2023-04-09T08:01:03.890Z,18.28
2023-04-09T08:04:07.488Z,18.64
2023-04-09T08:07:20.627Z,18.83
2023-04-09T08:10:15.080Z,19.24
2023-04-09T08:13:46.158Z,19.80
2023-04-09T08:17:06.562Z,20.48
2023-04-09T08:20:39.248Z,21.00
2023-04-09T08:24:29.043Z,21.24
2023-04-09T08:27:12.220Z,21.50
2023-04-09T08:29:59.464Z,21.54
2023-04-09T08:33:11.562Z,20.96
2023-04-09T08:35:55.703Z,20.84
2023-04-09T08:39:00.895Z,20.83
2023-04-09T08:42:11.709Z,20.79
2023-04-09T08:45:26.969Z,20.20
2023-04-09T08:48:14.678Z,19.98
2023-04-09T08:51:43.906Z,19.93
2023-04-09T08:55:51.976Z,19.71
2023-04-09T08:59:31.734Z,19.88
2023-04-09T09:02:39.790Z,20.31
2023-04-09T09:06:28.887Z,20.69
2023-04-09T09:09:55.472Z,20.87
2023-04-09T09:13:05.036Z,20.92
2023-04-09T09:15:40.554Z,21.00
2023-04-09T09:19:17.678Z,21.17
2023-04-09T09:22:13.445Z,21.44
2023-04-09T09:24:53.709Z,21.45
2023-04-09T09:28:24.338Z,21.26
2023-04-09T09:31:38.179Z,21.69
2023-04-09T09:34:36.916Z,22.09
2023-04-09T09:37:57.696Z,22.31
2023-04-09T09:41:01.912Z,22.82
2023-04-09T09:43:43.109Z,23.16
2023-04-09T09:46:11.785Z,23.31
2023-04-09T09:49:17.004Z,23.37
2023-04-09T09:52:52.708Z,23.30
2023-04-09T09:56:38.390Z,22.81
2023-04-09T09:59:27.131Z,22.32
2023-04-09T10:02:01.572Z,22.62
2023-04-09T10:04:45.792Z,23.01
2023-04-09T10:08:30.393Z,23.10
2023-04-09T10:11:42.792Z,22.46
2023-04-09T10:14:21.077Z,21.54
2023-04-09T10:17:16.078Z,21.83
2023-04-09T10:20:59.987Z,21.69
2023-04-09T10:24:25.439Z,21.21
2023-04-09T10:27:16.207Z,21.73
2023-04-09T10:30:13.312Z,21.93
2023-04-09T10:33:22.563Z,21.53
2023-04-09T10:36:27.889Z,21.60
2023-04-09T10:39:43.320Z,21.75
2023-04-09T10:42:16.172Z,22.04
2023-04-09T10:45:22.465Z,22.00
2023-04-09T10:48:00.421Z,22.11
2023-04-09T10:50:39.566Z,22.47
2023-04-09T10:53:32.687Z,23.06
2023-04-09T10:56:01.485Z,23.61
2023-04-09T10:58:37.527Z,23.94
2023-04-09T11:01:27.397Z,24.06
2023-04-09T11:04:23.618Z,24.07
2023-04-09T11:06:54.509Z,24.23
2023-04-09T11:09:55.337Z,24.52
2023-04-09T11:12:43.096Z,25.06
2023-04-09T11:15:18.489Z,25.54
2023-04-09T11:17:54.352Z,25.38
2023-04-09T11:20:47.536Z,24.99
2023-04-09T11:23:17.817Z,24.52
2023-04-09T11:26:10.040Z,24.07
2023-04-09T11:28:58.384Z,23.75
2023-04-09T11:31:30.410Z,23.54
2023-04-09T11:34:20.692Z,23.25
2023-04-09T11:36:51.495Z,22.86
2023-04-09T11:39:24.956Z,22.40
2023-04-09T11:41:58.644Z,22.17
2023-04-09T11:44:52.394Z,22.20
2023-04-09T11:47:31.881Z,22.46
2023-04-09T11:50:06.308Z,22.59
2023-04-09T11:52:35.837Z,22.93
2023-04-09T11:55:32.367Z,23.34
2023-04-09T11:58:18.477Z,23.90
2023-04-09T12:00:46.154Z,24.06
2023-04-09T12:03:31.036Z,24.31
2023-04-09T12:06:02.760Z,24.01
2023-04-09T12:08:35.530Z,24.28
2023-04-09T12:11:12.637Z,24.11
2023-04-09T12:14:11.394Z,24.04
2023-04-09T12:17:16.128Z,24.09
2023-04-09T12:20:32.368Z,23.70
2023-04-09T12:23:14.517Z,23.10
2023-04-09T12:25:48.272Z,22.75
2023-04-09T12:28:16.859Z,22.32
2023-04-09T12:30:54.099Z,21.96
2023-04-09T12:33:46.576Z,21.65
2023-04-09T12:36:18.258Z,21.45
2023-04-09T12:38:52.180Z,21.20
2023-04-09T12:41:56.340Z,21.03
2023-04-09T12:44:46.892Z,20.80
2023-04-09T12:47:23.006Z,20.67
2023-04-09T12:50:04.905Z,20.79
2023-04-09T12:52:44.359Z,20.62
2023-04-09T12:55:30.642Z,20.26
2023-04-09T12:58:08.726Z,20.28
2023-04-09T13:01:00.406Z,20.23
2023-04-09T13:03:32.396Z,20.11
2023-04-09T13:06:13.059Z,19.82
2023-04-09T13:08:43.245Z,19.58
2023-04-09T13:11:18.526Z,19.37
2023-04-09T13:14:13.482Z,19.14
2023-04-09T13:16:55.269Z,18.85
2023-04-09T13:19:26.905Z,18.63
2023-04-09T13:22:34.357Z,18.41
2023-04-09T13:25:07.121Z,18.20
2023-04-09T13:28:01.049Z,17.97
2023-04-09T13:30:38.694Z,17.91
2023-04-09T13:33:37.161Z,17.91
2023-04-09T13:36:38.937Z,17.91
2023-04-09T13:39:41.096Z,17.94
2023-04-09T13:42:33.157Z,18.02
2023-04-09T13:45:32.255Z,17.95
2023-04-09T13:48:06.554Z,17.97
2023-04-09T13:50:44.211Z,18.14
2023-04-09T13:53:12.161Z,18.24
2023-04-09T13:55:41.233Z,18.28
2023-04-09T13:58:28.730Z,18.41
2023-04-09T14:01:39.489Z,18.53
2023-04-09T14:04:19.436Z,18.46
2023-04-09T14:07:06.698Z,18.37
2023-04-09T14:09:55.087Z,18.29
2023-04-09T14:13:06.612Z,18.16
2023-04-09T14:15:57.479Z,18.29
2023-04-09T14:19:10.426Z,18.08
2023-04-09T14:21:56.825Z,17.93
2023-04-09T14:24:28.929Z,17.87
2023-04-09T14:27:38.641Z,17.83
2023-04-09T14:30:32.354Z,17.82
2023-04-09T14:33:08.106Z,17.88
2023-04-09T14:35:41.084Z,17.93
2023-04-09T14:38:14.908Z,17.94
2023-04-09T14:40:55.443Z,17.96
2023-04-09T14:43:45.572Z,18.00
2023-04-09T14:46:39.712Z,17.92
2023-04-09T14:49:10.848Z,17.83
2023-04-09T14:52:37.023Z,17.78
2023-04-09T14:56:24.601Z,17.64
2023-04-09T14:59:09.729Z,17.43
2023-04-09T15:02:08.376Z,17.28
2023-04-09T15:05:02.141Z,17.16
2023-04-09T15:07:50.547Z,16.89
2023-04-09T15:11:20.032Z,16.79
2023-04-09T15:14:12.285Z,16.71
2023-04-09T15:16:55.887Z,16.63
2023-04-09T15:19:25.979Z,16.55
2023-04-09T15:22:01.723Z,16.47
2023-04-09T15:24:47.652Z,16.46
2023-04-09T15:27:36.756Z,16.45
2023-04-09T15:30:35.310Z,16.42
2023-04-09T15:33:14.680Z,16.40
2023-04-09T15:35:43.929Z,16.34
2023-04-09T15:38:25.230Z,16.27
2023-04-09T15:41:27.021Z,16.23
2023-04-09T15:44:05.146Z,16.17
2023-04-09T15:46:45.870Z,16.13
2023-04-09T15:49:19.618Z,16.04
2023-04-09T15:51:54.176Z,15.93
2023-04-09T15:54:49.673Z,15.82
2023-04-09T15:57:22.182Z,15.71
2023-04-09T15:59:49.778Z,15.60
2023-04-09T16:02:27.179Z,15.50
2023-04-09T16:05:05.286Z,15.38
2023-04-09T16:07:52.260Z,15.25
2023-04-09T16:10:21.993Z,15.13
2023-04-09T16:12:49.960Z,15.02
2023-04-09T16:15:29.278Z,14.94
2023-04-09T16:17:58.089Z,14.84
2023-04-09T16:20:27.005Z,14.77
2023-04-09T16:23:10.741Z,14.68
2023-04-09T16:25:47.724Z,14.59
2023-04-09T16:28:16.608Z,14.49
2023-04-09T16:30:50.089Z,14.42
2023-04-09T16:33:36.967Z,14.34
2023-04-09T16:36:05.262Z,14.27
2023-04-09T16:38:40.024Z,14.19
2023-04-09T16:41:20.037Z,14.10
2023-04-09T16:43:53.077Z,14.02
2023-04-09T16:46:46.105Z,13.92
2023-04-09T16:49:14.145Z,13.84
2023-04-09T16:51:42.239Z,13.68
2023-04-09T16:54:13.048Z,13.60
2023-04-09T16:56:46.086Z,13.54
2023-04-09T16:59:15.565Z,13.49
2023-04-09T17:01:49.099Z,13.39
2023-04-09T17:04:27.020Z,13.36
2023-04-09T17:07:17.705Z,13.31
2023-04-09T17:09:59.201Z,13.28
2023-04-09T17:13:13.772Z,13.28
2023-04-09T17:15:43.342Z,13.32
2023-04-09T17:18:30.291Z,13.36
2023-04-09T17:20:59.434Z,13.35
2023-04-09T17:23:42.811Z,13.22
2023-04-09T17:26:10.392Z,13.13
2023-04-09T17:28:44.471Z,13.11
2023-04-09T17:31:17.762Z,13.07
2023-04-09T17:34:41.685Z,13.00
2023-04-09T17:37:30.972Z,12.92
2023-04-09T17:40:44.316Z,12.87
2023-04-09T17:43:54.723Z,12.81
2023-04-09T17:46:27.131Z,12.76
2023-04-09T17:49:19.361Z,12.69
2023-04-09T17:51:49.790Z,13.42
2023-04-09T17:54:33.625Z,14.10
2023-04-09T17:57:10.960Z,14.19
2023-04-09T17:59:56.968Z,14.03
2023-04-09T18:02:32.990Z,13.80
2023-04-09T18:05:17.815Z,13.58
2023-04-09T18:07:56.859Z,13.37
2023-04-09T18:10:34.271Z,13.20
2023-04-09T18:13:17.659Z,13.04
2023-04-09T18:16:18.187Z,12.93
2023-04-09T18:18:52.364Z,12.82
2023-04-09T18:21:29.790Z,12.74
2023-04-09T18:24:03.781Z,12.66
2023-04-09T18:26:34.935Z,13.30
2023-04-09T18:29:04.579Z,14.00
2023-04-09T18:31:36.488Z,14.14
2023-04-09T18:34:06.788Z,13.98
2023-04-09T18:36:35.573Z,13.71
2023-04-09T18:40:20.354Z,13.28
2023-04-09T18:43:08.803Z,13.24
2023-04-09T18:45:42.847Z,13.05
2023-04-09T18:48:13.290Z,12.90
2023-04-09T18:50:48.469Z,12.71
2023-04-09T18:53:34.214Z,13.28
2023-04-09T18:56:10.022Z,13.93
2023-04-09T18:58:37.262Z,13.95
2023-04-09T19:01:14.379Z,13.76
2023-04-09T19:03:44.881Z,13.52
2023-04-09T19:06:28.009Z,13.26
2023-04-09T19:08:58.365Z,13.05
2023-04-09T19:11:33.635Z,12.85
2023-04-09T19:14:00.719Z,12.65
2023-04-09T19:16:31.596Z,13.12
2023-04-09T19:18:58.853Z,13.72
2023-04-09T19:21:25.963Z,13.77
2023-04-09T19:23:56.277Z,13.58
2023-04-09T19:26:26.636Z,13.34
2023-04-09T19:28:54.289Z,13.10
2023-04-09T19:31:35.642Z,12.85
2023-04-09T19:34:08.264Z,12.65
2023-04-09T19:36:38.316Z,12.44
2023-04-09T19:39:11.021Z,12.99
2023-04-09T19:41:41.560Z,13.65
2023-04-09T19:44:26.044Z,13.71
2023-04-09T19:46:58.070Z,13.49
2023-04-09T19:49:34.655Z,13.24
2023-04-09T19:52:07.156Z,13.06
2023-04-09T19:54:43.404Z,12.74
2023-04-09T19:57:12.827Z,12.37
2023-04-09T20:00:28.667Z,12.05
2023-04-09T20:03:11.345Z,12.84
2023-04-09T20:05:44.069Z,13.28
2023-04-09T20:08:37.088Z,13.20
2023-04-09T20:11:30.634Z,12.91
2023-04-09T20:14:18.109Z,12.57
2023-04-09T20:16:48.903Z,12.29
2023-04-09T20:19:24.245Z,12.04
2023-04-09T20:21:57.126Z,11.81
2023-04-09T20:24:55.533Z,12.32
2023-04-09T20:27:28.406Z,12.76
2023-04-09T20:29:59.693Z,12.72
2023-04-09T20:32:49.006Z,12.47
2023-04-09T20:35:19.416Z,12.20
2023-04-09T20:38:41.605Z,11.93
2023-04-09T20:41:34.138Z,11.69
2023-04-09T20:44:13.120Z,12.40
2023-04-09T20:47:15.539Z,12.97
2023-04-09T20:50:04.464Z,12.89
2023-04-09T20:53:37.052Z,12.55
2023-04-09T20:56:25.498Z,12.17
2023-04-09T21:00:11.664Z,11.85
2023-04-09T21:04:08.980Z,11.70
2023-04-09T21:07:19.734Z,12.80
2023-04-09T21:10:52.749Z,12.91
2023-04-09T21:14:15.418Z,12.55
2023-04-09T21:17:12.132Z,12.11
2023-04-09T21:19:44.757Z,11.88
2023-04-09T21:23:13.736Z,11.64
2023-04-09T21:27:01.727Z,12.56
2023-04-09T21:30:31.331Z,12.92
2023-04-09T21:33:30.225Z,12.66
2023-04-09T21:37:18.360Z,12.25
2023-04-09T21:40:57.263Z,11.81
2023-04-09T21:44:45.670Z,11.65
2023-04-09T21:48:30.629Z,12.76
2023-04-09T21:52:06.513Z,12.81
2023-04-09T21:55:40.667Z,12.49
2023-04-09T21:59:16.522Z,12.11
2023-04-09T22:02:54.013Z,11.77
2023-04-09T22:06:24.274Z,11.58
2023-04-09T22:10:28.311Z,12.71
2023-04-09T22:14:10.057Z,12.69
2023-04-09T22:18:16.746Z,12.23
2023-04-09T22:22:24.891Z,11.74
2023-04-09T22:26:32.982Z,11.38
2023-04-09T22:30:42.673Z,11.39
2023-04-09T22:34:50.751Z,12.62
2023-04-09T22:38:59.896Z,12.51
2023-04-09T22:42:52.688Z,12.07
2023-04-09T22:46:50.423Z,11.66
2023-04-09T22:50:59.313Z,11.52
2023-04-09T22:55:08.566Z,12.64
2023-04-09T22:58:56.459Z,12.52
2023-04-09T23:02:57.625Z,12.06
2023-04-09T23:07:06.899Z,11.63
2023-04-09T23:10:47.233Z,11.50
2023-04-09T23:14:55.028Z,12.54
2023-04-09T23:18:55.840Z,12.49
2023-04-09T23:23:04.329Z,12.02
2023-04-09T23:27:12.524Z,11.55
2023-04-09T23:31:10.866Z,11.38
2023-04-09T23:35:18.974Z,12.44
2023-04-09T23:39:17.581Z,12.28
2023-04-09T23:43:27.804Z,11.84
2023-04-09T23:47:36.790Z,11.44
2023-04-09T23:51:48.053Z,11.34
2023-04-09T23:55:45.291Z,12.41
2023-04-09T23:59:33.474Z,12.30
